ベルリン/テーゲル の空港の天気 - METARとTAF

ベルリン・テーゲル国際空港 ( EDDT / TXL ) - ドイツ ベルリン
飛行場実況気象(Metar)
観測時間06/03 07:20 CEST (06/03 05:20 UTC)
風向・風速東北東 2m/s
視程10km以上
天気現象
なし
気温15℃
湿度63%
気圧1008hPa
METAREDDT 030520Z 06004KT 010V120 CAVOK 15/08 Q1008 NOSIG
過去の天気等 Google飛行場航空写真 Wunderground天気予報

過去48時間のMETAR

飛行場予報(TAF)
発表時間: 6/03 07:00 CEST (6/03 05:00 UTC)
予報対象時間: 3日8時 CEST ~ 4日8時 CEST
風向・風速東 3m/s
視程10km以上
なし
TAF EDDT 030500Z 0306/0406 09006KT CAVOK